Aransas Pass — WDF5061 — position and weather

sailwx.info

Track history (hours):
 
Tides and Currents Weather Stations Pressure Air Temp Water Temp Dewpoint Dewpoint Depression Visibility Wind Speed Wind Dir Waves Ship Positions

Aransas Pass

Owner: Higman Barge Lines, Inc., Orange, TX. More information available from US FCC via Universal Licensing System and Coast Guard Vessel Documentation Center.

Last reported at 2017-Nov-30 11:11 UTC. Time now 2017-Dec-17 00:41 UTC.
Position N 29°49' W 093°59'.
Warning: this ship's position is 16 days out of date.

Length 26 m; draft 3 m.

Type: Towing. MMSI: 367458930.

Date/timePositionNaut miles runAvg speedWind from/ knotsBaromVisibWave heightAir tempDewpointWater temp
2017-Nov-30 11:11N 29°49' W 093°59'0 0.0
2017-Nov-30 11:00N 29°49' W 093°59'0 0.0
2017-Nov-30 10:25N 29°49' W 093°59'0 0.0
2017-Nov-30 10:00N 29°49' W 093°59'0 0.0
2017-Nov-30 09:23N 29°49' W 093°59'11 0.3
2017-Nov-28 14:13N 29°59' W 093°52'  
2017-Nov-25 08:56N 30°04' W 093°33'2 4.9
2017-Nov-25 08:31N 30°04' W 093°31'2 4.9
2017-Nov-25 08:00N 30°04' W 093°28'2 4.8
2017-Nov-25 07:31N 30°04' W 093°25'3 5.1
2017-Nov-25 07:01N 30°04' W 093°22'2 4.1
2017-Nov-25 06:30N 30°05' W 093°20'2 4.4
2017-Nov-25 06:01N 30°06' W 093°18'2 3.1
2017-Nov-25 05:30N 30°05' W 093°17'2 3.6
2017-Nov-25 05:01N 30°03' W 093°16'2 3.6
2017-Nov-25 04:31N 30°02' W 093°15'2 3.9
2017-Nov-25 04:01N 30°00' W 093°14'1 1.7
2017-Nov-25 03:31N 29°60' W 093°13'1 2.1
2017-Nov-25 03:00N 29°59' W 093°12'2 4.7
2017-Nov-25 02:30N 29°57' W 093°10'46 3.7
2017-Nov-24 14:14N 29°50' W 092°18'1 3.4
2017-Nov-24 14:00N 29°50' W 092°18'1 3.0
2017-Nov-24 13:31N 29°49' W 092°16'2 3.1
2017-Nov-24 13:00N 29°48' W 092°15'2 3.4
2017-Nov-24 12:31N 29°47' W 092°13'1 2.4
2017-Nov-24 12:01N 29°47' W 092°12'1 1.0
2017-Nov-24 11:31N 29°47' W 092°11'0 0.0
2017-Nov-24 11:00N 29°47' W 092°11'0 0.0
2017-Nov-24 10:31N 29°47' W 092°11'0 0.0
2017-Nov-24 10:01N 29°47' W 092°11'0 0.9
2017-Nov-24 09:31N 29°47' W 092°11'0 0.0
2017-Nov-24 09:01N 29°47' W 092°11'0 0.0
2017-Nov-24 08:31N 29°47' W 092°11'0 0.1
2017-Nov-24 08:01N 29°47' W 092°11'1 2.2
2017-Nov-24 07:31N 29°47' W 092°09'2 4.6
2017-Nov-24 07:01N 29°48' W 092°07'3 5.1
2017-Nov-24 06:21N 29°49' W 092°03'  
Track history (hours):
 
Tides and Currents Weather Stations Pressure Air Temp Water Temp Dewpoint Dewpoint Depression Visibility Wind Speed Wind Dir Waves Ship Positions

Aransas Pass

Owner: Higman Barge Lines, Inc., Orange, TX. More information available from US FCC via Universal Licensing System and Coast Guard Vessel Documentation Center.

Last reported at 2017-Nov-30 11:11 UTC. Time now 2017-Dec-17 00:41 UTC.
Position N 29°49' W 093°59'.
Warning: this ship's position is 16 days out of date.

Length 26 m; draft 3 m.

Type: Towing. MMSI: 367458930.

Date/timePositionNaut miles runAvg speedWind from/ knotsBaromVisibWave heightAir tempDewpointWater temp
2017-Nov-30 11:11N 29°49' W 093°59'0 0.0
2017-Nov-30 11:00N 29°49' W 093°59'0 0.0
2017-Nov-30 10:25N 29°49' W 093°59'0 0.0
2017-Nov-30 10:00N 29°49' W 093°59'0 0.0
2017-Nov-30 09:23N 29°49' W 093°59'11 0.3
2017-Nov-28 14:13N 29°59' W 093°52'  
2017-Nov-25 08:56N 30°04' W 093°33'2 4.9
2017-Nov-25 08:31N 30°04' W 093°31'2 4.9
2017-Nov-25 08:00N 30°04' W 093°28'2 4.8
2017-Nov-25 07:31N 30°04' W 093°25'3 5.1
2017-Nov-25 07:01N 30°04' W 093°22'2 4.1
2017-Nov-25 06:30N 30°05' W 093°20'2 4.4
2017-Nov-25 06:01N 30°06' W 093°18'2 3.1
2017-Nov-25 05:30N 30°05' W 093°17'2 3.6
2017-Nov-25 05:01N 30°03' W 093°16'2 3.6
2017-Nov-25 04:31N 30°02' W 093°15'2 3.9
2017-Nov-25 04:01N 30°00' W 093°14'1 1.7
2017-Nov-25 03:31N 29°60' W 093°13'1 2.1
2017-Nov-25 03:00N 29°59' W 093°12'2 4.7
2017-Nov-25 02:30N 29°57' W 093°10'46 3.7
2017-Nov-24 14:14N 29°50' W 092°18'1 3.4
2017-Nov-24 14:00N 29°50' W 092°18'1 3.0
2017-Nov-24 13:31N 29°49' W 092°16'2 3.1
2017-Nov-24 13:00N 29°48' W 092°15'2 3.4
2017-Nov-24 12:31N 29°47' W 092°13'1 2.4
2017-Nov-24 12:01N 29°47' W 092°12'1 1.0
2017-Nov-24 11:31N 29°47' W 092°11'0 0.0
2017-Nov-24 11:00N 29°47' W 092°11'0 0.0
2017-Nov-24 10:31N 29°47' W 092°11'0 0.0
2017-Nov-24 10:01N 29°47' W 092°11'0 0.9
2017-Nov-24 09:31N 29°47' W 092°11'0 0.0
2017-Nov-24 09:01N 29°47' W 092°11'0 0.0
2017-Nov-24 08:31N 29°47' W 092°11'0 0.1
2017-Nov-24 08:01N 29°47' W 092°11'1 2.2
2017-Nov-24 07:31N 29°47' W 092°09'2 4.6
2017-Nov-24 07:01N 29°48' W 092°07'3 5.1
2017-Nov-24 06:21N 29°49' W 092°03'  

Dump ship's entire track history